createdAt,value
2022-08-05T00:02:20.335Z,28.96
2022-08-05T00:04:47.654Z,28.97
2022-08-05T00:07:58.834Z,28.96
2022-08-05T00:10:10.677Z,28.96
2022-08-05T00:12:56.520Z,28.96
2022-08-05T00:15:55.109Z,28.97
2022-08-05T00:18:21.458Z,28.97
2022-08-05T00:20:49.184Z,28.96
2022-08-05T00:23:16.403Z,28.98
2022-08-05T00:25:45.713Z,28.97
2022-08-05T00:28:13.631Z,28.97
2022-08-05T00:30:44.203Z,28.97
2022-08-05T00:33:15.351Z,28.98
2022-08-05T00:36:16.565Z,28.98
2022-08-05T00:38:45.949Z,28.96
2022-08-05T00:41:13.261Z,28.97
2022-08-05T00:43:47.310Z,28.98
2022-08-05T00:46:16.929Z,28.98
2022-08-05T00:49:04.386Z,28.97
2022-08-05T00:51:51.999Z,28.97
2022-08-05T00:54:19.436Z,28.98
2022-08-05T00:56:51.398Z,28.98
2022-08-05T00:59:18.955Z,28.98
2022-08-05T01:01:48.560Z,28.98
2022-08-05T01:04:19.900Z,28.98
2022-08-05T01:06:51.732Z,28.99
2022-08-05T01:09:19.897Z,28.99
2022-08-05T01:11:49.677Z,28.99
2022-08-05T01:14:28.440Z,28.99
2022-08-05T01:17:02.046Z,28.98
2022-08-05T01:20:00.948Z,28.99
2022-08-05T01:22:41.550Z,28.98
2022-08-05T01:25:14.846Z,28.98
2022-08-05T01:27:55.309Z,28.99
2022-08-05T01:30:34.223Z,28.98
2022-08-05T01:33:08.219Z,28.98
2022-08-05T01:35:52.194Z,28.98
2022-08-05T01:38:27.496Z,28.98
2022-08-05T01:40:58.790Z,28.99
2022-08-05T01:43:28.044Z,28.99
2022-08-05T01:45:56.559Z,28.99
2022-08-05T01:48:25.181Z,28.99
2022-08-05T01:50:52.601Z,28.99
2022-08-05T01:53:55.139Z,28.99
2022-08-05T01:56:09.512Z,28.98
2022-08-05T01:58:44.711Z,28.99
2022-08-05T02:01:24.569Z,28.99
2022-08-05T02:03:53.649Z,28.99
2022-08-05T02:06:37.121Z,28.99
2022-08-05T02:09:05.885Z,28.99
2022-08-05T02:11:42.098Z,28.99
2022-08-05T02:14:12.926Z,28.99
2022-08-05T02:16:53.102Z,28.98
2022-08-05T02:19:23.488Z,28.98
2022-08-05T02:22:02.237Z,28.98
2022-08-05T02:24:34.118Z,28.98
2022-08-05T02:27:09.137Z,28.99
2022-08-05T02:29:58.757Z,28.99
2022-08-05T02:32:30.970Z,28.98
2022-08-05T02:35:09.601Z,28.99
2022-08-05T02:37:41.567Z,28.98
2022-08-05T02:40:09.967Z,28.98
2022-08-05T02:42:37.793Z,28.99
2022-08-05T02:45:05.723Z,29.00
2022-08-05T02:48:07.514Z,28.98
2022-08-05T02:50:23.113Z,28.98
2022-08-05T02:52:51.031Z,28.99
2022-08-05T02:55:54.984Z,28.99
2022-08-05T02:58:12.294Z,28.99
2022-08-05T03:00:41.152Z,29.00
2022-08-05T03:03:16.614Z,28.98
2022-08-05T03:06:53.647Z,28.98
2022-08-05T03:08:31.165Z,28.99
2022-08-05T03:11:53.436Z,28.99
2022-08-05T03:13:51.077Z,28.99
2022-08-05T03:16:29.770Z,28.98
2022-08-05T03:18:59.639Z,28.98
2022-08-05T03:21:28.844Z,28.99
2022-08-05T03:24:00.619Z,28.99
2022-08-05T03:26:31.769Z,28.98
2022-08-05T03:28:59.940Z,28.99
2022-08-05T03:31:56.759Z,28.99
2022-08-05T03:34:15.209Z,28.99
2022-08-05T03:36:42.689Z,28.99
2022-08-05T03:39:13.123Z,28.99
2022-08-05T03:41:47.461Z,28.99
2022-08-05T03:44:20.208Z,29.00
2022-08-05T03:46:47.368Z,28.99
2022-08-05T03:49:15.771Z,28.99
2022-08-05T03:52:37.528Z,28.99
2022-08-05T03:55:54.209Z,28.99
2022-08-05T03:57:42.569Z,28.99
2022-08-05T04:00:15.872Z,28.98
2022-08-05T04:02:57.777Z,28.99
2022-08-05T04:05:34.680Z,28.98
2022-08-05T04:08:03.519Z,28.99
2022-08-05T04:10:37.987Z,28.99
2022-08-05T04:13:06.355Z,28.99
2022-08-05T04:15:35.921Z,28.98
2022-08-05T04:18:07.060Z,28.99
2022-08-05T04:20:35.060Z,28.98
2022-08-05T04:23:02.285Z,28.99
2022-08-05T04:25:56.673Z,28.99
2022-08-05T04:28:18.740Z,28.99
2022-08-05T04:30:46.145Z,28.98
2022-08-05T04:33:15.602Z,28.98
2022-08-05T04:36:15.683Z,28.99
2022-08-05T04:38:39.796Z,28.99
2022-08-05T04:41:09.618Z,28.99
2022-08-05T04:43:37.905Z,28.99
2022-08-05T04:46:13.611Z,28.99
2022-08-05T04:48:57.958Z,28.99
2022-08-05T04:51:25.970Z,28.99
2022-08-05T04:53:57.782Z,28.98
2022-08-05T04:56:34.929Z,28.98
2022-08-05T04:59:21.544Z,28.99
2022-08-05T05:02:35.503Z,28.99
2022-08-05T05:04:38.184Z,28.99
2022-08-05T05:07:09.556Z,28.98
2022-08-05T05:09:37.228Z,28.98
2022-08-05T05:12:04.927Z,28.99
2022-08-05T05:14:33.376Z,28.99
2022-08-05T05:17:07.278Z,28.99
2022-08-05T05:19:36.514Z,28.99
2022-08-05T05:22:23.571Z,28.98
2022-08-05T05:24:57.373Z,28.98
2022-08-05T05:27:41.323Z,28.98
2022-08-05T05:30:15.465Z,28.98
2022-08-05T05:32:56.885Z,28.98
2022-08-05T05:35:27.357Z,28.99
2022-08-05T05:38:00.380Z,28.98
2022-08-05T05:40:30.036Z,28.98
2022-08-05T05:42:59.859Z,28.98
2022-08-05T05:45:29.500Z,28.98
2022-08-05T05:48:06.075Z,28.98
2022-08-05T05:50:44.095Z,28.98
2022-08-05T05:53:21.588Z,28.99
2022-08-05T05:55:51.395Z,28.98
2022-08-05T05:58:30.387Z,28.99
2022-08-05T06:01:02.184Z,28.98
2022-08-05T06:04:00.816Z,28.99
2022-08-05T06:06:33.228Z,28.99
2022-08-05T06:09:03.256Z,28.98
2022-08-05T06:11:31.763Z,28.98
2022-08-05T06:14:00.341Z,28.98
2022-08-05T06:16:36.593Z,28.99
2022-08-05T06:19:05.788Z,28.98
2022-08-05T06:21:36.971Z,28.99
2022-08-05T06:24:07.723Z,29.00
2022-08-05T06:26:38.676Z,28.99
2022-08-05T06:29:06.991Z,28.99
2022-08-05T06:31:53.305Z,28.98
2022-08-05T06:34:20.420Z,28.99
2022-08-05T06:36:57.257Z,28.98
2022-08-05T06:39:27.147Z,28.99
2022-08-05T06:41:59.216Z,28.99
2022-08-05T06:44:26.915Z,28.98
2022-08-05T06:46:54.591Z,28.99
2022-08-05T06:50:01.475Z,28.99
2022-08-05T06:52:38.083Z,28.99
2022-08-05T06:54:56.017Z,28.99
2022-08-05T06:57:58.098Z,28.98
2022-08-05T07:00:10.732Z,28.98
2022-08-05T07:02:46.393Z,28.98
2022-08-05T07:05:15.280Z,28.99
2022-08-05T07:07:49.044Z,28.99
2022-08-05T07:10:16.639Z,28.98
2022-08-05T07:13:02.711Z,28.98
2022-08-05T07:16:01.748Z,28.99
2022-08-05T07:18:32.044Z,28.99
2022-08-05T07:21:05.478Z,28.99
2022-08-05T07:23:32.875Z,29.00
2022-08-05T07:26:00.879Z,28.99
2022-08-05T07:28:29.164Z,28.99
2022-08-05T07:30:56.703Z,29.00
2022-08-05T07:33:36.904Z,28.99
2022-08-05T07:36:20.391Z,29.00
2022-08-05T07:38:48.940Z,29.00
2022-08-05T07:42:13.011Z,29.00
2022-08-05T07:44:06.001Z,28.99
2022-08-05T07:46:41.793Z,28.99
2022-08-05T07:49:15.486Z,29.00
2022-08-05T07:51:53.320Z,29.01
2022-08-05T07:54:31.599Z,29.00
2022-08-05T07:57:22.437Z,29.01
2022-08-05T07:59:49.773Z,29.01
2022-08-05T08:02:18.027Z,29.00
2022-08-05T08:04:46.773Z,29.01
2022-08-05T08:07:15.024Z,29.01
2022-08-05T08:09:43.542Z,29.01
2022-08-05T08:12:30.561Z,29.01
2022-08-05T08:15:02.380Z,29.02
2022-08-05T08:17:30.212Z,29.02
2022-08-05T08:20:10.828Z,29.03
2022-08-05T08:22:50.570Z,29.01
2022-08-05T08:25:18.270Z,29.02
2022-08-05T08:27:54.743Z,29.02
2022-08-05T08:30:32.851Z,29.03
2022-08-05T08:33:09.248Z,29.03
2022-08-05T08:35:53.028Z,29.03
2022-08-05T08:38:32.224Z,29.03
2022-08-05T08:41:05.772Z,29.03
2022-08-05T08:45:22.447Z,29.02
2022-08-05T08:46:22.058Z,29.03
2022-08-05T08:49:06.155Z,29.03
2022-08-05T08:52:03.670Z,29.04
2022-08-05T08:54:27.329Z,29.04
2022-08-05T08:56:56.429Z,29.03
2022-08-05T08:59:27.727Z,29.04
2022-08-05T09:02:02.046Z,29.04
2022-08-05T09:04:30.281Z,29.05
2022-08-05T09:06:58.334Z,29.04
2022-08-05T09:09:34.885Z,29.04
2022-08-05T09:12:20.204Z,29.06
2022-08-05T09:14:57.114Z,29.04
2022-08-05T09:17:42.386Z,29.04
2022-08-05T09:20:11.225Z,29.06
2022-08-05T09:23:04.845Z,29.06
2022-08-05T09:26:01.063Z,29.06
2022-08-05T09:28:24.510Z,29.05
2022-08-05T09:31:43.136Z,29.05
2022-08-05T09:33:59.484Z,29.05
2022-08-05T09:36:59.906Z,29.06
2022-08-05T09:39:41.550Z,29.07
2022-08-05T09:42:23.532Z,29.06
2022-08-05T09:44:56.607Z,29.07
2022-08-05T09:47:25.695Z,29.07
2022-08-05T09:50:02.309Z,29.08
2022-08-05T09:52:34.063Z,29.07
2022-08-05T09:55:55.476Z,29.07
2022-08-05T09:57:49.838Z,29.08
2022-08-05T10:00:24.709Z,29.07
2022-08-05T10:02:58.706Z,29.07
2022-08-05T10:05:32.851Z,29.08
2022-08-05T10:08:35.740Z,29.07
2022-08-05T10:10:53.957Z,29.08
2022-08-05T10:13:31.579Z,29.08
2022-08-05T10:16:31.088Z,29.09
2022-08-05T10:19:00.009Z,29.08
2022-08-05T10:21:35.204Z,29.10
2022-08-05T10:24:10.868Z,29.09
2022-08-05T10:26:51.257Z,29.10
2022-08-05T10:30:05.801Z,29.08
2022-08-05T10:32:54.653Z,29.10
2022-08-05T10:35:00.960Z,29.10
2022-08-05T10:37:44.505Z,29.09
2022-08-05T10:40:27.970Z,29.09
2022-08-05T10:42:58.709Z,29.11
2022-08-05T10:45:40.473Z,29.10
2022-08-05T10:48:31.005Z,29.11
2022-08-05T10:51:06.340Z,29.11
2022-08-05T10:53:55.796Z,29.10
2022-08-05T10:56:27.028Z,29.11
2022-08-05T10:58:54.555Z,29.11
2022-08-05T11:01:55.496Z,29.11
2022-08-05T11:04:21.595Z,29.11
2022-08-05T11:06:58.017Z,29.12
2022-08-05T11:09:39.475Z,29.12
2022-08-05T11:12:32.258Z,29.11
2022-08-05T11:15:19.574Z,29.11
2022-08-05T11:17:57.268Z,29.12
2022-08-05T11:20:43.772Z,29.13
2022-08-05T11:23:33.255Z,29.12
2022-08-05T11:26:04.943Z,29.12
2022-08-05T11:28:35.861Z,29.12
2022-08-05T11:31:06.565Z,29.13
2022-08-05T11:33:46.410Z,29.13
2022-08-05T11:36:34.420Z,29.12
2022-08-05T11:39:04.534Z,29.13
2022-08-05T11:41:54.656Z,29.13
2022-08-05T11:44:40.817Z,29.13
2022-08-05T11:47:11.210Z,29.13
2022-08-05T11:49:43.246Z,29.13
2022-08-05T11:52:23.422Z,29.14
2022-08-05T11:54:58.182Z,29.13
2022-08-05T11:57:29.563Z,29.14
2022-08-05T11:59:58.341Z,29.14
2022-08-05T12:02:31.437Z,29.15
2022-08-05T12:05:00.884Z,29.14
2022-08-05T12:08:07.462Z,29.15
2022-08-05T12:10:22.985Z,29.14
2022-08-05T12:12:59.578Z,29.15
2022-08-05T12:15:38.449Z,29.14
2022-08-05T12:18:10.747Z,29.15
2022-08-05T12:20:38.826Z,29.14
2022-08-05T12:23:09.890Z,29.14
2022-08-05T12:25:50.200Z,29.15
2022-08-05T12:28:32.597Z,29.16
2022-08-05T12:31:02.245Z,29.15
2022-08-05T12:33:36.729Z,29.15
2022-08-05T12:36:07.010Z,29.15
2022-08-05T12:38:41.868Z,29.16
2022-08-05T12:41:13.218Z,29.16
2022-08-05T12:43:51.580Z,29.16
2022-08-05T12:46:29.472Z,29.16
2022-08-05T12:49:01.609Z,29.16
2022-08-05T12:52:13.788Z,29.16
2022-08-05T12:54:35.675Z,29.16
2022-08-05T12:57:09.439Z,29.17
2022-08-05T13:01:58.319Z,29.17
2022-08-05T13:02:37.182Z,29.16
2022-08-05T13:05:07.289Z,29.16
2022-08-05T13:10:22.015Z,29.17
2022-08-05T13:12:57.730Z,29.17
2022-08-05T13:15:42.185Z,29.17
2022-08-05T13:18:20.849Z,29.17
2022-08-05T13:20:49.876Z,29.18
2022-08-05T13:23:22.162Z,29.18
2022-08-05T13:25:59.195Z,29.18
2022-08-05T13:28:27.464Z,29.18
2022-08-05T13:30:54.593Z,29.18
2022-08-05T13:34:23.041Z,29.19
2022-08-05T13:36:09.656Z,29.19
2022-08-05T13:38:38.418Z,29.19
2022-08-05T13:41:10.889Z,29.18
2022-08-05T13:43:45.305Z,29.19
2022-08-05T13:47:01.553Z,29.18
2022-08-05T13:49:11.705Z,29.19
2022-08-05T13:51:40.900Z,29.18
2022-08-05T13:54:11.812Z,29.19
2022-08-05T13:56:45.467Z,29.19
2022-08-05T13:59:24.418Z,29.19
2022-08-05T14:01:57.489Z,29.20
2022-08-05T14:04:50.102Z,29.19
2022-08-05T14:07:59.774Z,29.19
2022-08-05T14:10:28.668Z,29.21
2022-08-05T14:12:56.982Z,29.21
2022-08-05T14:16:08.113Z,29.21
2022-08-05T14:18:17.601Z,29.21
2022-08-05T14:20:47.267Z,29.21
2022-08-05T14:23:24.019Z,29.21
2022-08-05T14:25:54.493Z,29.22
2022-08-05T14:28:26.748Z,29.22
2022-08-05T14:30:54.765Z,29.22
2022-08-05T14:33:22.716Z,29.22
2022-08-05T14:35:51.902Z,29.22
2022-08-05T14:38:33.275Z,29.22
2022-08-05T14:41:05.705Z,29.22
2022-08-05T14:43:57.753Z,29.22
2022-08-05T14:46:23.299Z,29.22
2022-08-05T14:48:57.244Z,29.23
2022-08-05T14:51:24.311Z,29.23
2022-08-05T14:54:25.940Z,29.23
2022-08-05T14:56:44.349Z,29.22
2022-08-05T14:59:14.507Z,29.23
2022-08-05T15:01:49.164Z,29.23
2022-08-05T15:04:20.763Z,29.24
2022-08-05T15:06:50.425Z,29.23
2022-08-05T15:09:54.234Z,29.23
2022-08-05T15:12:05.794Z,29.24
2022-08-05T15:14:34.821Z,29.23
2022-08-05T15:17:44.582Z,29.25
2022-08-05T15:19:57.545Z,29.23
2022-08-05T15:22:27.204Z,29.24
2022-08-05T15:24:55.838Z,29.24
2022-08-05T15:27:25.543Z,29.23
2022-08-05T15:29:56.639Z,29.24
2022-08-05T15:32:27.405Z,29.25
2022-08-05T15:34:56.957Z,29.25
2022-08-05T15:38:21.123Z,29.25
2022-08-05T15:41:00.213Z,29.26
2022-08-05T15:43:09.106Z,29.26
2022-08-05T15:45:43.145Z,29.25
2022-08-05T15:48:14.432Z,29.25
2022-08-05T15:50:43.681Z,29.26
2022-08-05T15:53:13.106Z,29.25
2022-08-05T15:56:03.462Z,29.25
2022-08-05T15:58:35.801Z,29.27
2022-08-05T16:01:17.422Z,29.26
2022-08-05T16:03:50.464Z,29.26
2022-08-05T16:06:20.306Z,29.27
2022-08-05T16:08:50.371Z,29.27
2022-08-05T16:11:21.055Z,29.27
2022-08-05T16:14:08.991Z,29.27
2022-08-05T16:16:36.422Z,29.27
2022-08-05T16:19:03.896Z,29.27
2022-08-05T16:21:58.741Z,29.27
2022-08-05T16:24:41.922Z,29.27
2022-08-05T16:27:07.309Z,29.28
2022-08-05T16:29:45.519Z,29.28
2022-08-05T16:32:17.688Z,29.29
2022-08-05T16:34:55.556Z,29.28
2022-08-05T16:38:02.321Z,29.29
2022-08-05T16:40:24.943Z,29.29
2022-08-05T16:42:53.872Z,29.28
2022-08-05T16:46:05.304Z,29.29
2022-08-05T16:48:08.075Z,29.28
2022-08-05T16:50:37.711Z,29.28
2022-08-05T16:53:12.025Z,29.29
2022-08-05T16:55:47.227Z,29.28
2022-08-05T16:58:14.650Z,29.29
2022-08-05T17:00:48.139Z,29.30
2022-08-05T17:03:20.452Z,29.29
2022-08-05T17:05:54.047Z,29.29
2022-08-05T17:08:36.239Z,29.30
2022-08-05T17:11:16.817Z,29.30
2022-08-05T17:13:45.065Z,29.30
2022-08-05T17:16:29.770Z,29.30
2022-08-05T17:18:59.467Z,29.29
2022-08-05T17:21:35.283Z,29.30
2022-08-05T17:24:14.401Z,29.31
2022-08-05T17:26:52.507Z,29.31
2022-08-05T17:29:22.578Z,29.31
2022-08-05T17:31:59.968Z,29.31
2022-08-05T17:34:30.199Z,29.31
2022-08-05T17:36:59.532Z,29.31
2022-08-05T17:39:34.413Z,29.31
2022-08-05T17:42:17.809Z,29.31
2022-08-05T17:44:50.410Z,29.32
2022-08-05T17:47:22.170Z,29.31
2022-08-05T17:49:59.556Z,29.31
2022-08-05T17:52:34.789Z,29.32
2022-08-05T17:55:20.680Z,29.31
2022-08-05T17:57:50.041Z,29.33
2022-08-05T18:00:17.584Z,29.33
2022-08-05T18:02:47.299Z,29.33
2022-08-05T18:05:16.744Z,29.33
2022-08-05T18:07:44.691Z,29.34
2022-08-05T18:10:12.049Z,29.34
2022-08-05T18:12:51.123Z,29.34
2022-08-05T18:15:18.438Z,29.34
2022-08-05T18:18:01.311Z,29.34
2022-08-05T18:20:34.483Z,29.35
2022-08-05T18:23:08.974Z,29.34
2022-08-05T18:25:39.192Z,29.34
2022-08-05T18:28:07.173Z,29.34
2022-08-05T18:30:39.101Z,29.35
2022-08-05T18:33:08.554Z,29.34
2022-08-05T18:36:01.126Z,29.34
2022-08-05T18:38:29.083Z,29.35
2022-08-05T18:41:54.320Z,29.35
2022-08-05T18:43:48.435Z,29.35
2022-08-05T18:46:19.924Z,29.35
2022-08-05T18:48:53.759Z,29.35
2022-08-05T18:52:02.691Z,29.35
2022-08-05T18:54:28.330Z,29.35
2022-08-05T18:57:01.721Z,29.36
2022-08-05T18:59:43.960Z,29.36
2022-08-05T19:02:36.491Z,29.36
2022-08-05T19:06:05.289Z,29.36
2022-08-05T19:07:56.163Z,29.36
2022-08-05T19:10:26.471Z,29.37
2022-08-05T19:12:56.760Z,29.36
2022-08-05T19:15:56.731Z,29.36
2022-08-05T19:18:20.591Z,29.37
2022-08-05T19:20:55.883Z,29.37
2022-08-05T19:24:05.570Z,29.37
2022-08-05T19:26:11.389Z,29.36
2022-08-05T19:28:42.012Z,29.37
2022-08-05T19:31:13.239Z,29.37
2022-08-05T19:33:47.951Z,29.38
2022-08-05T19:36:24.204Z,29.38
2022-08-05T19:38:51.555Z,29.39
2022-08-05T19:41:22.163Z,29.37
2022-08-05T19:44:12.794Z,29.38
2022-08-05T19:46:41.612Z,29.38
2022-08-05T19:49:12.451Z,29.38
2022-08-05T19:52:05.889Z,29.38
2022-08-05T19:54:32.907Z,29.39
2022-08-05T19:57:06.479Z,29.38
2022-08-05T20:00:01.673Z,29.38
2022-08-05T20:02:26.244Z,29.38
2022-08-05T20:04:59.178Z,29.38
2022-08-05T20:07:46.224Z,29.40
2022-08-05T20:10:14.978Z,29.38
2022-08-05T20:12:47.718Z,29.39
2022-08-05T20:15:23.374Z,29.39
2022-08-05T20:18:10.689Z,29.39
2022-08-05T20:20:51.516Z,29.40
2022-08-05T20:23:22.627Z,29.40
2022-08-05T20:25:52.218Z,29.39
2022-08-05T20:28:19.544Z,29.39
2022-08-05T20:30:46.755Z,29.40
2022-08-05T20:33:16.467Z,29.39
2022-08-05T20:35:45.501Z,29.40
2022-08-05T20:38:14.428Z,29.40
2022-08-05T20:40:50.545Z,29.41
2022-08-05T20:43:17.745Z,29.40
2022-08-05T20:46:06.802Z,29.41
2022-08-05T20:48:36.095Z,29.41
2022-08-05T20:51:08.339Z,29.40
2022-08-05T20:53:37.153Z,29.39
2022-08-05T20:56:09.680Z,29.41
2022-08-05T20:58:37.173Z,29.41
2022-08-05T21:01:04.794Z,29.42
2022-08-05T21:03:34.516Z,29.41
2022-08-05T21:06:02.144Z,29.41
2022-08-05T21:08:41.845Z,29.40
2022-08-05T21:11:11.788Z,29.42
2022-08-05T21:13:48.088Z,29.42
2022-08-05T21:16:29.497Z,29.41
2022-08-05T21:19:01.737Z,29.41
2022-08-05T21:21:39.352Z,29.42
2022-08-05T21:24:12.624Z,29.41
2022-08-05T21:26:41.406Z,29.41
2022-08-05T21:29:12.515Z,29.41
2022-08-05T21:31:43.708Z,29.41
2022-08-05T21:34:11.453Z,29.42
2022-08-05T21:36:39.486Z,29.41
2022-08-05T21:39:10.145Z,29.41
2022-08-05T21:41:41.882Z,29.41
2022-08-05T21:44:27.043Z,29.41
2022-08-05T21:46:58.519Z,29.41
2022-08-05T21:49:59.397Z,29.41
2022-08-05T21:52:27.549Z,29.41
2022-08-05T21:55:06.818Z,29.42
2022-08-05T21:57:35.613Z,29.42
2022-08-05T22:00:05.950Z,29.41
2022-08-05T22:02:39.940Z,29.42
2022-08-05T22:05:10.732Z,29.42
2022-08-05T22:07:54.258Z,29.41
2022-08-05T22:10:27.139Z,29.43
2022-08-05T22:12:57.158Z,29.43
2022-08-05T22:16:02.036Z,29.42
2022-08-05T22:18:14.339Z,29.42
2022-08-05T22:20:41.880Z,29.41
2022-08-05T22:24:02.336Z,29.43
2022-08-05T22:26:35.770Z,29.42
2022-08-05T22:29:03.411Z,29.42
2022-08-05T22:31:30.929Z,29.43
2022-08-05T22:34:12.942Z,29.42
2022-08-05T22:36:48.162Z,29.42
2022-08-05T22:39:21.591Z,29.42
2022-08-05T22:42:11.436Z,29.43
2022-08-05T22:44:35.818Z,29.42
2022-08-05T22:47:05.063Z,29.43
2022-08-05T22:50:21.779Z,29.43
2022-08-05T22:52:30.273Z,29.43
2022-08-05T22:55:01.923Z,29.43
2022-08-05T22:57:36.150Z,29.43
2022-08-05T23:00:05.489Z,29.43
2022-08-05T23:02:39.796Z,29.43
2022-08-05T23:05:07.423Z,29.43
2022-08-05T23:07:45.079Z,29.43
2022-08-05T23:10:16.447Z,29.42
2022-08-05T23:12:51.156Z,29.43
2022-08-05T23:15:21.309Z,29.43
2022-08-05T23:17:59.706Z,29.44
2022-08-05T23:20:27.360Z,29.42
2022-08-05T23:22:56.542Z,29.43
2022-08-05T23:25:53.687Z,29.44
2022-08-05T23:28:13.250Z,29.43
2022-08-05T23:30:52.787Z,29.43
2022-08-05T23:33:25.574Z,29.44
2022-08-05T23:36:06.503Z,29.44
2022-08-05T23:38:37.613Z,29.44
2022-08-05T23:41:04.689Z,29.44
2022-08-05T23:43:37.417Z,29.44
2022-08-05T23:46:21.997Z,29.44
2022-08-05T23:49:00.720Z,29.43
2022-08-05T23:51:55.074Z,29.44
2022-08-05T23:54:29.961Z,29.44
2022-08-05T23:57:03.890Z,29.44
